Sanders, Arizona
Current Conditions -  °F | °C
As of 12:53 AM on Friday 28 Nov 2014 (Local Time) from KGUP Reporting Station
Clear Clear  
Wind Chill: 28°   Ceiling: Unl
Heat Index: 28°   Visibility: 10mi
Dew Point:   Wind: 3mph
Humidity: 45%   Direction: 40°NE
Pressure: 30.34"   Gusts: NA
Location:  35.22°N, 109.34°W
Report Text: KGUP 280753Z AUTO 04003KT 10SM CLR M02/M13 A3034 RMK AO2 SLP239 T10221128
Loading
Personal Weather Stations






























Interactive Weather Map New forecast layout! Learn more

10-Day Weather Forecast

Advertisements
Track Severe Weather on mobile